Time;durP1;ratioP1;P1;durP2;ratioP2;P2;SDS_P1;SDS_P2;PMS_P1;PMS_P2;Temp;Humidity;BMP_temperature;BMP_pressure;BME280_temperature;BME280_humidity;BME280_pressure;Samples;Min_cycle;Max_cycle;Signal;HPM_P1;HPM_P2
2021/12/27 00:00:21;;;;;;;10.90;6.63;;;4.30;99.90;;;;;;5125708;27;20031;-74
2021/12/27 00:02:49;;;;;;;10.68;5.95;;;4.50;99.90;;;;;;5132615;28;20027;-74
2021/12/27 00:05:15;;;;;;;12.63;7.68;;;4.50;99.90;;;;;;5132783;28;20034;-74
2021/12/27 00:07:43;;;;;;;11.80;7.57;;;4.40;99.90;;;;;;5132403;28;20130;-74
2021/12/27 00:10:10;;;;;;;10.00;6.82;;;4.40;99.90;;;;;;5132909;28;20545;-74
2021/12/27 00:12:36;;;;;;;11.80;6.00;;;4.40;99.90;;;;;;5132866;28;20508;-74
2021/12/27 00:15:02;;;;;;;9.02;5.30;;;4.30;99.90;;;;;;5132896;28;20379;-74
2021/12/27 00:17:28;;;;;;;11.25;5.63;;;4.30;99.90;;;;;;5132700;28;20023;-74
2021/12/27 00:19:56;;;;;;;11.60;5.38;;;4.30;99.90;;;;;;5132501;28;20027;-74
2021/12/27 00:22:22;;;;;;;8.57;5.45;;;4.30;99.90;;;;;;5133848;27;20481;-74
2021/12/27 00:24:48;;;;;;;9.95;5.28;;;4.40;99.90;;;;;;5136608;27;20065;-74
2021/12/27 00:27:15;;;;;;;8.45;4.80;;;4.50;99.90;;;;;;5136959;27;20100;-74
2021/12/27 00:29:41;;;;;;;11.65;5.80;;;4.50;99.90;;;;;;5136682;27;20027;-74
2021/12/27 00:32:07;;;;;;;9.18;5.80;;;4.30;99.90;;;;;;5136596;27;20029;-74
2021/12/27 00:34:36;;;;;;;10.32;5.65;;;4.20;99.90;;;;;;5118194;27;20015;-74
2021/12/27 00:37:05;;;;;;;8.57;4.45;;;4.20;99.90;;;;;;5136435;27;20051;-74
2021/12/27 00:39:32;;;;;;;12.10;5.70;;;4.00;99.90;;;;;;5136393;27;20071;-74
2021/12/27 00:41:58;;;;;;;9.63;5.30;;;4.20;99.90;;;;;;5136308;27;20100;-74
2021/12/27 00:44:24;;;;;;;10.45;6.32;;;4.30;99.90;;;;;;5136551;27;20031;-74
2021/12/27 00:46:49;;;;;;;11.05;5.47;;;4.20;99.90;;;;;;5136340;27;20027;-74
2021/12/27 00:49:15;;;;;;;9.77;5.53;;;4.20;99.90;;;;;;5136151;27;20016;-74
2021/12/27 00:51:41;;;;;;;10.20;6.30;;;4.30;99.90;;;;;;5136395;27;20488;-74
2021/12/27 00:54:06;;;;;;;15.25;8.07;;;4.30;99.90;;;;;;5136285;27;20031;-74
2021/12/27 00:56:32;;;;;;;12.05;6.78;;;3.90;99.90;;;;;;5136319;27;20080;-74
2021/12/27 00:58:58;;;;;;;13.00;7.53;;;3.70;99.90;;;;;;5136088;27;20031;-74
2021/12/27 01:01:24;;;;;;;14.20;7.82;;;3.90;99.90;;;;;;5135960;27;20035;-74
2021/12/27 01:03:50;;;;;;;8.63;5.97;;;4.10;99.90;;;;;;5136155;27;20063;-74
2021/12/27 01:06:15;;;;;;;8.95;5.43;;;4.10;99.90;;;;;;5136102;27;20364;-74
2021/12/27 01:08:41;;;;;;;13.20;4.63;;;4.20;99.90;;;;;;5135531;27;20043;-74
2021/12/27 01:13:46;;;;;;;10.35;6.00;;;4.30;99.90;;;;;;5135812;27;20031;-74
2021/12/27 01:16:14;;;;;;;13.97;8.97;;;4.10;99.90;;;;;;5135861;27;20034;-74
2021/12/27 01:18:48;;;;;;;13.10;7.97;;;4.00;99.90;;;;;;5135517;27;20031;-74
2021/12/27 01:21:16;;;;;;;13.15;8.02;;;4.00;99.90;;;;;;5135666;27;20035;-74
2021/12/27 01:23:42;;;;;;;8.85;6.40;;;4.00;99.90;;;;;;5135181;27;20027;-74
2021/12/27 01:26:09;;;;;;;11.68;6.60;;;4.10;99.90;;;;;;5135834;27;20023;-74
2021/12/27 01:28:35;;;;;;;12.40;7.15;;;4.10;99.90;;;;;;5135458;27;20481;-74
2021/12/27 01:31:00;;;;;;;10.13;6.30;;;4.10;99.90;;;;;;5135441;27;20034;-74
2021/12/27 01:33:26;;;;;;;15.82;8.23;;;4.10;99.90;;;;;;5135156;27;20029;-74
2021/12/27 01:35:54;;;;;;;10.50;7.45;;;4.20;99.90;;;;;;5135383;27;20027;-74
2021/12/27 01:38:20;;;;;;;11.70;6.97;;;4.30;99.90;;;;;;5135319;27;21666;-74
2021/12/27 01:40:48;;;;;;;10.90;6.20;;;4.40;99.90;;;;;;5135246;27;20027;-74
2021/12/27 01:43:21;;;;;;;11.43;5.95;;;4.50;99.90;;;;;;5135466;27;20027;-74
2021/12/27 01:45:59;;;;;;;9.93;5.93;;;4.60;99.90;;;;;;5135247;27;20015;-74
2021/12/27 01:48:32;;;;;;;14.18;7.55;;;4.50;99.90;;;;;;5135148;27;20473;-74
2021/12/27 01:50:59;;;;;;;13.98;6.85;;;4.30;99.90;;;;;;5134977;27;20046;-74
2021/12/27 01:53:28;;;;;;;11.45;6.40;;;4.30;99.90;;;;;;5135174;27;20553;-74
2021/12/27 01:55:55;;;;;;;9.20;5.43;;;4.30;99.90;;;;;;5135107;27;20015;-74
2021/12/27 01:58:22;;;;;;;9.07;5.32;;;4.30;99.90;;;;;;5135054;27;20115;-74
2021/12/27 02:00:51;;;;;;;10.85;5.53;;;4.40;99.90;;;;;;5134729;27;20020;-74
2021/12/27 02:03:19;;;;;;;11.20;5.55;;;4.40;99.90;;;;;;5134994;27;20078;-74
2021/12/27 02:05:44;;;;;;;10.95;6.38;;;4.50;99.90;;;;;;5135000;27;20098;-74
2021/12/27 02:08:11;;;;;;;13.00;7.10;;;4.50;99.90;;;;;;5134483;27;20074;-74
2021/12/27 02:10:37;;;;;;;11.68;6.43;;;4.60;99.90;;;;;;5134924;27;20112;-74
2021/12/27 02:13:03;;;;;;;7.88;5.07;;;4.60;99.90;;;;;;5134731;27;20031;-74
2021/12/27 02:15:30;;;;;;;9.98;5.60;;;4.80;99.90;;;;;;5134779;27;20035;-74
2021/12/27 02:17:56;;;;;;;8.90;4.50;;;5.00;99.90;;;;;;5134468;27;20019;-74
2021/12/27 02:20:26;;;;;;;9.15;5.15;;;5.10;99.90;;;;;;5134570;27;20083;-74
2021/12/27 02:22:55;;;;;;;7.70;4.43;;;5.20;99.90;;;;;;5134440;27;20050;-74
2021/12/27 02:25:21;;;;;;;9.85;5.18;;;5.40;99.70;;;;;;5116079;27;20027;-74
2021/12/27 02:27:48;;;;;;;11.07;6.38;;;5.30;99.80;;;;;;5134233;27;20464;-75
2021/12/27 02:30:19;;;;;;;8.85;5.00;;;5.30;99.90;;;;;;5134565;27;20077;-74
2021/12/27 02:33:05;;;;;;;9.63;4.55;;;5.40;99.50;;;;;;5134461;27;20381;-74
2021/12/27 02:35:40;;;;;;;7.78;4.72;;;5.50;99.30;;;;;;5134275;27;20087;-74
2021/12/27 02:38:10;;;;;;;8.82;5.10;;;5.40;99.50;;;;;;5115710;27;20034;-74
2021/12/27 02:40:38;;;;;;;8.85;5.07;;;5.40;99.50;;;;;;5134472;27;20527;-74
2021/12/27 02:43:16;;;;;;;9.57;5.13;;;5.20;99.70;;;;;;5134078;27;20107;-74
2021/12/27 02:45:47;;;;;;;8.85;5.40;;;5.20;99.80;;;;;;5133351;27;20097;-74
2021/12/27 02:48:14;;;;;;;9.88;5.10;;;5.10;99.90;;;;;;5133936;27;20031;-74
2021/12/27 02:50:42;;;;;;;8.75;4.88;;;5.10;99.90;;;;;;5134093;27;20026;-74
2021/12/27 02:53:08;;;;;;;10.10;6.15;;;5.20;99.70;;;;;;5134053;27;20024;-74
2021/12/27 02:55:34;;;;;;;9.68;5.10;;;5.40;99.30;;;;;;5134263;27;20567;-74
2021/12/27 02:58:00;;;;;;;6.93;4.63;;;5.30;99.40;;;;;;5133677;27;20473;-74
2021/12/27 03:00:39;;;;;;;9.25;4.97;;;5.20;99.80;;;;;;5133890;27;20064;-74
2021/12/27 03:03:05;;;;;;;8.73;5.20;;;5.20;99.90;;;;;;5133650;27;20045;-74
2021/12/27 03:05:32;;;;;;;7.88;4.85;;;5.10;99.90;;;;;;5133663;27;20027;-74
2021/12/27 03:07:58;;;;;;;7.82;4.50;;;5.10;99.90;;;;;;5133402;27;20113;-74
2021/12/27 03:10:26;;;;;;;7.15;4.35;;;5.10;99.90;;;;;;5133830;27;20023;-74
2021/12/27 03:12:53;;;;;;;9.98;5.03;;;5.10;99.90;;;;;;5133287;27;20106;-74
2021/12/27 03:15:22;;;;;;;9.00;5.50;;;5.10;99.90;;;;;;5133510;27;20485;-74
2021/12/27 03:17:48;;;;;;;8.38;4.75;;;4.90;99.90;;;;;;5133287;27;20023;-74
2021/12/27 03:20:17;;;;;;;13.13;4.97;;;4.90;99.90;;;;;;5133297;27;20031;-74
2021/12/27 03:22:43;;;;;;;7.30;4.43;;;5.00;99.90;;;;;;5133327;27;20030;-74
2021/12/27 03:25:12;;;;;;;9.55;5.43;;;4.90;99.90;;;;;;5133321;27;20019;-74
2021/12/27 03:27:38;;;;;;;10.02;5.43;;;4.90;99.90;;;;;;5133482;27;20381;-74
2021/12/27 03:30:07;;;;;;;8.70;5.35;;;4.90;99.90;;;;;;5133235;27;20031;-74
2021/12/27 03:32:35;;;;;;;13.13;5.90;;;4.70;99.90;;;;;;5133201;27;20586;-74
2021/12/27 03:35:08;;;;;;;8.82;5.10;;;4.70;99.90;;;;;;5132983;27;20034;-74
2021/12/27 03:37:35;;;;;;;9.18;4.95;;;4.60;99.90;;;;;;5133055;27;20030;-74
2021/12/27 03:40:02;;;;;;;7.93;4.75;;;4.60;99.90;;;;;;5132953;27;20089;-74
2021/12/27 03:42:28;;;;;;;9.57;4.80;;;4.60;99.90;;;;;;5133135;27;20485;-74
2021/12/27 03:44:54;;;;;;;8.65;4.95;;;4.70;99.90;;;;;;5132833;27;20080;-74
2021/12/27 03:47:19;;;;;;;6.63;4.22;;;4.60;99.90;;;;;;5114572;28;20080;-74
2021/12/27 03:49:45;;;;;;;7.90;4.22;;;4.60;99.90;;;;;;5133355;27;20589;-74
2021/12/27 03:52:11;;;;;;;11.20;5.35;;;4.70;99.90;;;;;;5132989;27;20019;-74
2021/12/27 03:54:37;;;;;;;9.52;5.32;;;4.70;99.90;;;;;;5132874;27;20020;-74
2021/12/27 03:57:02;;;;;;;8.70;5.32;;;4.60;99.90;;;;;;5132711;27;20034;-74
2021/12/27 04:02:10;;;;;;;10.65;5.65;;;4.40;99.90;;;;;;5125620;27;20099;-76
2021/12/27 04:04:36;;;;;;;8.80;5.38;;;4.40;99.90;;;;;;5104774;28;20481;-75
2021/12/27 04:07:03;;;;;;;8.90;5.45;;;4.50;99.90;;;;;;5104175;28;20035;-76
2021/12/27 04:09:28;;;;;;;14.60;7.53;;;4.60;99.90;;;;;;5104330;28;20075;-76
2021/12/27 04:11:54;;;;;;;9.18;5.75;;;4.40;99.90;;;;;;5104623;28;20062;-76
2021/12/27 04:14:20;;;;;;;8.30;5.70;;;4.40;99.90;;;;;;5104481;28;20120;-76
2021/12/27 04:16:49;;;;;;;9.48;5.53;;;4.50;99.90;;;;;;5104907;28;20031;-76
2021/12/27 04:19:14;;;;;;;8.23;4.95;;;4.40;99.90;;;;;;5104420;28;20036;-76
2021/12/27 04:21:40;;;;;;;9.10;5.18;;;4.50;99.90;;;;;;5105194;28;20036;-76
2021/12/27 04:24:07;;;;;;;10.25;5.85;;;4.40;99.90;;;;;;5106996;28;20036;-76
2021/12/27 04:26:33;;;;;;;11.00;5.43;;;4.40;99.90;;;;;;5107544;28;20043;-76
2021/12/27 04:28:59;;;;;;;11.00;6.90;;;4.50;99.90;;;;;;5088841;28;20031;-76
2021/12/27 04:31:24;;;;;;;10.38;5.50;;;4.60;99.90;;;;;;5107720;28;20417;-76
2021/12/27 04:33:50;;;;;;;11.60;7.28;;;4.60;99.90;;;;;;5107760;28;20023;-76
2021/12/27 04:36:16;;;;;;;9.70;6.25;;;4.50;99.90;;;;;;5107367;28;20364;-76
2021/12/27 04:38:42;;;;;;;8.43;5.38;;;4.30;99.90;;;;;;5107320;28;20027;-76
2021/12/27 04:41:11;;;;;;;9.10;5.97;;;4.40;99.90;;;;;;5107322;28;20123;-76
2021/12/27 04:43:37;;;;;;;9.57;6.00;;;4.50;99.90;;;;;;5107528;28;20546;-76
2021/12/27 04:46:04;;;;;;;8.70;4.70;;;4.50;99.90;;;;;;5107116;28;20169;-76
2021/12/27 04:48:30;;;;;;;7.35;4.93;;;4.60;99.90;;;;;;5107361;28;20024;-76
2021/12/27 04:50:56;;;;;;;11.43;6.22;;;4.60;99.90;;;;;;5107569;28;20034;-76
2021/12/27 04:53:22;;;;;;;9.43;6.32;;;4.50;99.90;;;;;;5107412;28;20024;-76
2021/12/27 04:55:48;;;;;;;9.63;6.00;;;4.40;99.90;;;;;;5107240;28;20133;-76
2021/12/27 04:58:16;;;;;;;8.82;5.78;;;4.40;99.90;;;;;;5107265;28;20024;-76
2021/12/27 05:00:43;;;;;;;11.13;5.60;;;4.50;99.90;;;;;;5107136;28;20104;-76
2021/12/27 05:03:09;;;;;;;11.32;5.45;;;4.50;99.90;;;;;;5107043;28;20353;-76
2021/12/27 05:05:37;;;;;;;9.20;5.78;;;4.60;99.90;;;;;;5107204;28;20023;-76
2021/12/27 05:08:04;;;;;;;9.88;6.18;;;4.60;99.90;;;;;;5107421;28;20113;-76
2021/12/27 05:10:31;;;;;;;9.23;5.78;;;4.60;99.90;;;;;;5110982;28;20030;-76
2021/12/27 05:12:57;;;;;;;10.25;5.88;;;4.60;99.90;;;;;;5110636;28;20019;-75
2021/12/27 05:15:23;;;;;;;11.68;6.88;;;4.60;99.90;;;;;;5111078;28;20020;-76
2021/12/27 05:17:49;;;;;;;12.38;6.60;;;4.70;99.90;;;;;;5110621;28;20498;-76
2021/12/27 05:20:15;;;;;;;10.32;6.25;;;4.70;99.90;;;;;;5110616;28;20039;-75
2021/12/27 05:22:41;;;;;;;13.25;8.45;;;4.60;99.90;;;;;;5092443;28;20023;-76
2021/12/27 05:25:11;;;;;;;13.55;8.90;;;4.50;99.90;;;;;;5110535;28;20026;-76
2021/12/27 05:27:38;;;;;;;10.00;6.65;;;4.50;99.90;;;;;;5110506;28;20018;-76
2021/12/27 05:30:05;;;;;;;10.68;6.07;;;4.50;99.90;;;;;;5110320;28;20023;-76
2021/12/27 05:32:31;;;;;;;8.82;5.85;;;4.50;99.90;;;;;;5110478;28;20020;-76
2021/12/27 05:34:57;;;;;;;15.40;7.40;;;4.50;99.90;;;;;;5110104;28;20102;-76
2021/12/27 05:37:22;;;;;;;11.85;6.47;;;4.60;99.90;;;;;;5110320;28;20534;-76
2021/12/27 05:39:49;;;;;;;11.40;6.28;;;4.60;99.90;;;;;;5110184;28;20032;-76
2021/12/27 05:42:15;;;;;;;12.57;7.30;;;4.60;99.90;;;;;;5110208;28;20035;-76
2021/12/27 05:44:40;;;;;;;12.88;7.07;;;4.60;99.90;;;;;;5110011;28;20096;-76
2021/12/27 05:47:06;;;;;;;11.88;6.68;;;4.50;99.90;;;;;;5110058;28;20381;-76
2021/12/27 05:49:32;;;;;;;11.27;6.60;;;4.50;99.90;;;;;;5110363;28;20031;-76
2021/12/27 05:51:58;;;;;;;10.75;6.57;;;4.60;99.90;;;;;;5110261;28;20436;-76
2021/12/27 05:54:24;;;;;;;11.35;7.20;;;4.50;99.90;;;;;;5091656;28;20019;-76
2021/12/27 05:56:50;;;;;;;9.88;6.25;;;4.50;99.90;;;;;;5109980;28;20035;-76
2021/12/27 05:59:19;;;;;;;8.50;5.75;;;4.40;99.90;;;;;;5109808;28;20069;-76
2021/12/27 06:01:46;;;;;;;11.63;6.30;;;4.40;99.90;;;;;;5109610;28;20032;-76
2021/12/27 06:04:12;;;;;;;11.05;6.35;;;4.40;99.90;;;;;;5108295;28;20481;-76
2021/12/27 06:06:37;;;;;;;11.38;6.70;;;4.40;99.90;;;;;;5107112;28;20085;-76
2021/12/27 06:09:05;;;;;;;13.20;8.82;;;4.40;99.90;;;;;;5107538;28;20162;-76
2021/12/27 06:11:30;;;;;;;12.05;7.90;;;4.30;99.90;;;;;;5109756;28;20077;-76
2021/12/27 06:13:56;;;;;;;13.45;7.85;;;4.30;99.90;;;;;;5109672;28;20387;-75
2021/12/27 06:16:22;;;;;;;10.40;6.13;;;4.30;99.90;;;;;;5109744;28;20031;-75
2021/12/27 06:18:48;;;;;;;11.25;6.40;;;4.30;99.90;;;;;;5091011;28;20123;-75
2021/12/27 06:21:15;;;;;;;12.30;8.02;;;4.40;99.90;;;;;;5108313;28;20085;-75
2021/12/27 06:23:40;;;;;;;10.27;6.95;;;4.50;99.90;;;;;;5109543;28;20024;-75
2021/12/27 06:26:07;;;;;;;13.15;7.22;;;4.50;99.90;;;;;;5109365;28;20377;-75
2021/12/27 06:28:34;;;;;;;10.60;6.93;;;4.60;99.90;;;;;;5109424;28;20030;-75
2021/12/27 06:31:02;;;;;;;12.02;7.38;;;4.60;99.90;;;;;;5109144;28;20024;-76
2021/12/27 06:33:29;;;;;;;15.18;7.40;;;4.60;99.90;;;;;;5109492;28;20020;-76
2021/12/27 06:35:55;;;;;;;12.23;7.85;;;4.60;99.90;;;;;;5109022;28;20034;-76
2021/12/27 06:38:21;;;;;;;14.35;7.75;;;4.60;99.90;;;;;;5109383;28;20023;-76
2021/12/27 06:40:50;;;;;;;14.63;7.25;;;4.60;99.90;;;;;;5108746;28;20106;-75
2021/12/27 06:43:17;;;;;;;9.98;6.65;;;4.50;99.90;;;;;;5109089;28;20478;-76
2021/12/27 06:45:43;;;;;;;10.07;6.10;;;4.60;99.90;;;;;;5108792;28;20458;-76
2021/12/27 06:48:09;;;;;;;11.75;6.80;;;4.60;99.90;;;;;;5108729;28;20020;-75
2021/12/27 06:50:35;;;;;;;12.05;7.47;;;4.40;99.90;;;;;;5108781;28;20027;-75
2021/12/27 06:53:01;;;;;;;13.65;8.45;;;4.30;99.90;;;;;;5107380;28;20019;-75
2021/12/27 06:55:27;;;;;;;14.98;8.00;;;4.30;99.90;;;;;;5105881;28;20040;-76
2021/12/27 06:57:52;;;;;;;12.82;7.63;;;4.30;99.90;;;;;;5105728;28;20070;-76
2021/12/27 07:00:18;;;;;;;13.70;8.13;;;4.20;99.90;;;;;;5105904;28;20032;-76
2021/12/27 07:02:45;;;;;;;12.32;6.65;;;4.30;99.90;;;;;;5105510;28;20038;-76
2021/12/27 07:05:12;;;;;;;14.05;6.60;;;4.40;99.90;;;;;;5105725;28;20027;-76
2021/12/27 07:07:39;;;;;;;12.07;7.13;;;4.50;99.90;;;;;;5105563;28;21687;-76
2021/12/27 07:10:07;;;;;;;10.90;7.22;;;4.70;99.90;;;;;;5105736;28;20059;-76
2021/12/27 07:12:33;;;;;;;12.10;6.55;;;4.60;99.90;;;;;;5105393;28;20036;-76
2021/12/27 07:14:59;;;;;;;10.65;6.45;;;4.60;99.90;;;;;;5105360;28;20020;-76
2021/12/27 07:17:26;;;;;;;12.75;7.30;;;4.70;99.90;;;;;;5105506;28;20072;-76
2021/12/27 07:19:52;;;;;;;12.50;7.53;;;4.70;99.90;;;;;;5103855;28;20024;-76
2021/12/27 07:22:18;;;;;;;12.52;7.60;;;4.50;99.90;;;;;;5104197;28;20042;-76
2021/12/27 07:24:43;;;;;;;14.50;8.40;;;4.50;99.90;;;;;;5104670;28;20031;-76
2021/12/27 07:27:09;;;;;;;10.18;6.70;;;4.40;99.90;;;;;;5105462;28;20812;-75
2021/12/27 07:29:35;;;;;;;10.63;6.93;;;4.40;99.90;;;;;;5105180;28;20028;-76
2021/12/27 07:32:01;;;;;;;10.82;6.53;;;4.50;99.90;;;;;;5104745;28;20889;-76
2021/12/27 07:34:27;;;;;;;12.95;6.95;;;4.50;99.90;;;;;;5105013;28;20027;-76
2021/12/27 07:36:55;;;;;;;14.20;7.93;;;4.60;99.90;;;;;;5105041;28;20604;-76
2021/12/27 07:39:22;;;;;;;12.43;7.78;;;4.60;99.90;;;;;;5104737;28;20023;-76
2021/12/27 07:41:49;;;;;;;11.38;7.30;;;4.70;99.90;;;;;;5104904;28;20062;-76
2021/12/27 07:44:15;;;;;;;10.73;7.40;;;4.70;99.90;;;;;;5105319;28;20043;-76
2021/12/27 07:46:42;;;;;;;14.98;8.48;;;4.70;99.90;;;;;;5105070;28;20024;-76
2021/12/27 07:49:09;;;;;;;13.40;7.55;;;4.70;99.90;;;;;;5104797;28;20622;-76
2021/12/27 07:51:35;;;;;;;18.15;7.60;;;4.70;99.90;;;;;;5104569;28;20347;-76
2021/12/27 07:54:01;;;;;;;12.32;7.88;;;4.70;99.90;;;;;;5104619;28;20126;-76
2021/12/27 07:56:27;;;;;;;12.07;8.13;;;4.80;99.90;;;;;;5104787;28;20084;-76
2021/12/27 07:58:53;;;;;;;14.13;8.00;;;4.80;99.90;;;;;;5104706;28;20033;-76
2021/12/27 08:01:18;;;;;;;15.52;8.43;;;4.90;99.90;;;;;;5104806;28;20040;-76
2021/12/27 08:03:44;;;;;;;15.75;7.75;;;4.90;99.90;;;;;;5104782;28;20023;-76
2021/12/27 08:06:10;;;;;;;11.45;7.72;;;4.90;99.90;;;;;;5104831;28;20028;-76
2021/12/27 08:08:36;;;;;;;12.98;7.40;;;4.80;99.90;;;;;;5104407;28;20047;-76
2021/12/27 08:11:02;;;;;;;13.95;8.30;;;4.90;99.90;;;;;;5104697;28;20035;-76
2021/12/27 08:13:28;;;;;;;16.33;9.65;;;5.00;99.90;;;;;;5104720;28;20548;-76
2021/12/27 08:15:54;;;;;;;13.90;8.13;;;4.90;99.90;;;;;;5104671;28;20390;-76
2021/12/27 08:18:20;;;;;;;13.43;7.78;;;4.90;99.90;;;;;;5104624;28;20125;-75
2021/12/27 08:20:46;;;;;;;12.57;7.38;;;5.00;99.90;;;;;;5104897;28;20032;-76
2021/12/27 08:23:12;;;;;;;12.40;7.30;;;5.00;99.90;;;;;;5104570;28;20030;-76
2021/12/27 08:25:38;;;;;;;15.43;9.18;;;5.20;99.90;;;;;;5104859;28;20087;-75
2021/12/27 08:28:04;;;;;;;19.88;10.93;;;5.00;99.90;;;;;;5104636;28;20027;-76
2021/12/27 08:30:31;;;;;;;16.88;10.75;;;4.70;99.90;;;;;;5104331;28;20028;-76
2021/12/27 08:32:59;;;;;;;19.15;11.82;;;4.80;99.90;;;;;;5104603;28;20023;-76
2021/12/27 08:35:26;;;;;;;19.75;12.25;;;4.80;99.90;;;;;;5104505;28;20061;-76
2021/12/27 08:37:52;;;;;;;18.05;12.75;;;4.80;99.90;;;;;;5104001;28;20594;-76
2021/12/27 08:40:18;;;;;;;19.75;11.77;;;4.70;99.90;;;;;;5104479;28;20027;-76
2021/12/27 08:42:44;;;;;;;17.00;12.35;;;4.70;99.90;;;;;;5104511;28;20027;-76
2021/12/27 08:45:11;;;;;;;17.23;11.02;;;4.60;99.90;;;;;;5108376;28;20030;-76
2021/12/27 08:47:37;;;;;;;18.40;12.27;;;4.60;99.90;;;;;;5089822;28;20522;-75
2021/12/27 08:50:06;;;;;;;17.95;11.73;;;4.70;99.90;;;;;;5108126;28;20032;-75
2021/12/27 08:52:33;;;;;;;21.40;12.32;;;4.80;99.90;;;;;;5108405;28;20657;-76
2021/12/27 08:55:02;;;;;;;21.08;13.13;;;4.90;99.90;;;;;;5108169;28;20023;-76
2021/12/27 08:57:28;;;;;;;19.92;11.75;;;5.00;99.90;;;;;;5108094;28;20027;-76
2021/12/27 08:59:54;;;;;;;20.77;12.43;;;4.90;99.90;;;;;;5108092;28;20039;-76
2021/12/27 09:02:20;;;;;;;19.30;11.85;;;4.90;99.90;;;;;;5107956;28;20027;-76
2021/12/27 09:04:46;;;;;;;20.58;11.48;;;4.90;99.90;;;;;;5108295;28;20081;-76
2021/12/27 09:07:12;;;;;;;20.50;11.93;;;5.00;99.90;;;;;;5108167;28;20027;-76
2021/12/27 09:09:39;;;;;;;15.15;10.43;;;5.00;99.90;;;;;;5107663;28;20051;-76
2021/12/27 09:12:06;;;;;;;18.40;10.48;;;5.20;99.90;;;;;;5107753;28;20024;-76
2021/12/27 09:14:32;;;;;;;19.77;11.93;;;5.20;99.90;;;;;;5107671;28;20473;-76
2021/12/27 09:16:58;;;;;;;19.75;12.45;;;5.20;99.90;;;;;;5107418;28;20035;-76
2021/12/27 09:19:23;;;;;;;15.40;10.95;;;5.10;99.90;;;;;;5107624;28;20051;-76
2021/12/27 09:21:51;;;;;;;17.10;11.50;;;5.20;99.90;;;;;;5107433;28;20096;-76
2021/12/27 09:24:17;;;;;;;17.15;10.57;;;5.20;99.90;;;;;;5107826;28;20031;-76
2021/12/27 09:26:43;;;;;;;14.00;9.25;;;5.30;99.90;;;;;;5107389;28;20035;-76
2021/12/27 09:29:09;;;;;;;17.58;10.18;;;5.40;99.90;;;;;;5107424;28;20140;-76
2021/12/27 09:31:35;;;;;;;14.95;9.77;;;5.50;99.90;;;;;;5109931;28;20032;-76
2021/12/27 09:34:01;;;;;;;13.93;10.18;;;5.60;99.90;;;;;;5110391;28;20532;-76
2021/12/27 09:36:27;;;;;;;18.85;12.52;;;5.60;99.90;;;;;;5110245;28;20404;-76
2021/12/27 09:38:53;;;;;;;22.35;13.57;;;5.60;99.90;;;;;;5110061;28;20024;-76
2021/12/27 09:41:19;;;;;;;21.08;13.63;;;5.50;99.90;;;;;;5110258;28;20089;-76
2021/12/27 09:43:46;;;;;;;20.40;13.80;;;5.40;99.90;;;;;;5091908;28;20046;-76
2021/12/27 09:46:11;;;;;;;22.70;14.90;;;5.40;99.90;;;;;;5110253;28;20039;-76
2021/12/27 09:48:38;;;;;;;22.00;14.60;;;5.40;99.90;;;;;;5109926;28;20450;-76
2021/12/27 09:51:04;;;;;;;22.58;14.60;;;5.50;99.90;;;;;;5109869;28;20090;-75
2021/12/27 09:53:30;;;;;;;21.33;13.50;;;5.60;99.90;;;;;;5110096;28;20099;-75
2021/12/27 09:55:55;;;;;;;20.90;13.80;;;5.50;99.90;;;;;;5109913;28;20034;-76
2021/12/27 09:58:21;;;;;;;22.00;13.90;;;5.60;99.90;;;;;;5109695;28;20114;-76
2021/12/27 10:00:48;;;;;;;18.92;12.77;;;5.60;99.90;;;;;;5109683;28;20044;-76
2021/12/27 10:03:14;;;;;;;17.63;12.05;;;5.60;99.90;;;;;;5109560;28;20027;-75
2021/12/27 10:05:40;;;;;;;16.08;10.65;;;5.80;99.90;;;;;;5107065;28;20016;-75
2021/12/27 10:08:06;;;;;;;16.25;10.48;;;5.70;99.90;;;;;;5106311;28;20047;-75
2021/12/27 10:10:34;;;;;;;19.55;11.90;;;5.70;99.90;;;;;;5109958;28;20071;-76
2021/12/27 10:13:01;;;;;;;20.48;13.10;;;5.80;99.90;;;;;;5109677;28;20028;-76
2021/12/27 10:15:38;;;;;;;17.90;11.93;;;5.90;99.90;;;;;;5109771;28;20028;-76
2021/12/27 10:18:17;;;;;;;18.85;12.27;;;6.00;99.90;;;;;;5109472;28;20049;-76
2021/12/27 10:20:44;;;;;;;20.15;11.88;;;5.80;99.90;;;;;;5109587;28;20035;-75
2021/12/27 10:23:12;;;;;;;18.80;12.13;;;5.80;99.90;;;;;;5109732;28;20051;-76
2021/12/27 10:25:38;;;;;;;18.90;13.10;;;5.90;99.90;;;;;;5109554;28;20531;-76
2021/12/27 10:28:05;;;;;;;18.08;11.65;;;6.00;99.90;;;;;;5109130;28;20504;-76
2021/12/27 10:30:33;;;;;;;19.95;12.32;;;6.10;99.90;;;;;;5109589;28;20027;-76
2021/12/27 10:33:08;;;;;;;17.52;12.27;;;6.30;99.90;;;;;;5109693;28;20023;-76
2021/12/27 10:35:36;;;;;;;20.67;12.88;;;6.30;99.90;;;;;;5109576;28;20024;-77
2021/12/27 10:38:36;;;;;;;21.85;11.80;;;6.40;99.90;;;;;;5109077;28;20047;-74
2021/12/27 10:41:04;;;;;;;17.50;12.13;;;6.20;99.90;;;;;;5096353;28;20040;-75
2021/12/27 10:43:40;;;;;;;18.55;12.10;;;6.00;99.90;;;;;;5110735;28;20024;-75
2021/12/27 10:46:17;;;;;;;17.77;12.60;;;5.90;99.90;;;;;;5108895;28;20015;-75
2021/12/27 10:48:55;;;;;;;17.98;11.02;;;5.90;99.90;;;;;;5107573;28;20020;-76
2021/12/27 10:51:21;;;;;;;18.10;11.32;;;6.00;99.90;;;;;;5105828;28;20022;-75
2021/12/27 10:53:50;;;;;;;17.98;11.45;;;6.00;99.90;;;;;;5105970;28;20088;-75
2021/12/27 10:56:18;;;;;;;16.20;10.48;;;6.00;99.90;;;;;;5111127;27;20034;-75
2021/12/27 10:59:02;;;;;;;17.08;12.52;;;6.20;99.90;;;;;;5125938;27;20047;-75
2021/12/27 11:01:29;;;;;;;16.85;11.18;;;6.20;99.90;;;;;;5105004;28;20039;-75
2021/12/27 11:03:59;;;;;;;18.05;11.75;;;6.20;99.90;;;;;;5124647;27;20107;-75
2021/12/27 11:06:28;;;;;;;20.23;12.85;;;6.20;99.90;;;;;;5125238;27;20047;-76
2021/12/27 11:08:54;;;;;;;21.67;13.13;;;6.20;99.90;;;;;;5124386;27;20047;-75
2021/12/27 11:11:22;;;;;;;21.77;13.20;;;6.20;99.90;;;;;;5120931;27;20019;-75
2021/12/27 11:13:51;;;;;;;25.52;15.07;;;6.10;99.90;;;;;;5124217;27;20027;-75
2021/12/27 11:16:17;;;;;;;22.85;14.65;;;6.20;99.90;;;;;;5124521;27;20493;-75
2021/12/27 11:18:44;;;;;;;24.55;14.13;;;6.20;99.90;;;;;;5124456;27;20019;-75
2021/12/27 11:21:21;;;;;;;19.92;12.55;;;6.20;99.90;;;;;;5124568;27;20038;-75
2021/12/27 11:23:48;;;;;;;22.00;14.82;;;6.20;99.90;;;;;;5124703;27;20528;-75
2021/12/27 11:26:33;;;;;;;20.27;14.20;;;6.20;99.90;;;;;;5117145;27;20042;-75
2021/12/27 11:29:21;;;;;;;19.55;12.45;;;6.20;99.90;;;;;;5113277;27;20023;-75
2021/12/27 11:32:25;;;;;;;22.98;14.13;;;6.20;99.90;;;;;;5104791;28;20069;-75
2021/12/27 11:35:09;;;;;;;21.15;12.95;;;6.20;99.90;;;;;;5104217;28;20030;-75
2021/12/27 11:37:52;;;;;;;27.63;14.70;;;6.30;99.90;;;;;;5104356;28;20102;-75
2021/12/27 11:40:49;;;;;;;23.98;15.23;;;6.20;99.90;;;;;;5104628;28;20019;-75
2021/12/27 11:43:49;;;;;;;21.63;14.57;;;6.20;99.90;;;;;;5119056;27;20046;-75
2021/12/27 11:46:36;;;;;;;24.10;13.27;;;6.20;99.90;;;;;;5108867;27;20490;-75
2021/12/27 11:49:47;;;;;;;21.13;13.40;;;6.30;99.90;;;;;;5124648;27;20046;-75
2021/12/27 11:52:28;;;;;;;19.92;11.23;;;6.30;99.90;;;;;;5124802;27;20058;-75
2021/12/27 11:54:56;;;;;;;19.98;11.48;;;6.50;99.90;;;;;;5124691;27;20019;-75
2021/12/27 11:57:52;;;;;;;20.30;10.60;;;6.50;99.90;;;;;;5123746;27;20031;-75
2021/12/27 12:00:20;;;;;;;20.73;12.63;;;6.40;99.90;;;;;;5104272;28;20019;-75
2021/12/27 12:02:49;;;;;;;19.15;12.30;;;6.70;99.90;;;;;;5113981;27;20512;-75
2021/12/27 12:05:36;;;;;;;18.20;12.63;;;6.80;99.90;;;;;;5124855;27;20086;-75
2021/12/27 12:08:21;;;;;;;14.57;10.77;;;6.90;99.90;;;;;;5124113;28;20042;-75
2021/12/27 12:11:10;;;;;;;17.23;12.23;;;7.00;99.90;;;;;;5116128;28;20023;-75
2021/12/27 12:13:51;;;;;;;19.83;12.02;;;7.00;99.90;;;;;;5103834;28;20120;-75
2021/12/27 12:16:49;;;;;;;23.25;10.52;;;6.90;99.90;;;;;;5103926;28;20028;-75
2021/12/27 12:19:45;;;;;;;19.00;11.07;;;6.80;99.90;;;;;;5106911;28;20492;-75
2021/12/27 12:22:38;;;;;;;17.17;10.38;;;6.70;99.90;;;;;;5107878;28;20073;-75
2021/12/27 12:25:24;;;;;;;20.70;11.32;;;6.60;99.90;;;;;;5107810;28;20071;-75
2021/12/27 12:28:15;;;;;;;17.98;10.98;;;6.60;99.90;;;;;;5108243;28;20023;-75
2021/12/27 12:30:47;;;;;;;14.07;9.32;;;6.80;99.90;;;;;;5108310;28;20031;-75
2021/12/27 12:33:16;;;;;;;18.55;11.50;;;6.80;99.70;;;;;;5108090;28;20035;-75
2021/12/27 12:35:44;;;;;;;14.70;8.93;;;6.80;99.70;;;;;;5106401;28;20032;-75
2021/12/27 12:38:18;;;;;;;18.10;9.90;;;6.90;99.80;;;;;;5107917;28;20382;-75
2021/12/27 12:41:06;;;;;;;16.58;11.48;;;6.90;99.90;;;;;;5107836;28;20119;-75
2021/12/27 12:43:38;;;;;;;22.48;10.40;;;6.90;99.40;;;;;;5107378;28;20081;-75
2021/12/27 12:46:18;;;;;;;18.77;11.35;;;6.90;99.60;;;;;;5107626;28;20489;-75
2021/12/27 12:49:06;;;;;;;15.07;9.70;;;7.00;99.80;;;;;;5107635;28;20024;-75
2021/12/27 12:51:43;;;;;;;15.10;9.95;;;7.10;99.60;;;;;;5117796;27;20023;-75
2021/12/27 12:54:30;;;;;;;17.27;11.73;;;7.20;99.60;;;;;;5127968;27;20047;-75
2021/12/27 12:57:09;;;;;;;18.20;10.98;;;7.30;99.80;;;;;;5128044;27;20598;-75
2021/12/27 12:59:45;;;;;;;22.70;14.68;;;7.30;99.60;;;;;;5127758;27;20023;-75